Time;durP1;ratioP1;P1;durP2;ratioP2;P2;SDS_P1;SDS_P2;PMS_P1;PMS_P2;Temp;Humidity;BMP_temperature;BMP_pressure;BME280_temperature;BME280_humidity;BME280_pressure;Samples;Min_cycle;Max_cycle;Signal;HPM_P1;HPM_P2
2022/11/03 00:01:42;;;;;;;9.23;1.93;;;;;12.10;100920.00;;;;10295258;28;20212;-77
2022/11/03 00:06:46;;;;;;;10.90;1.87;;;;;12.00;100909.00;;;;10308098;28;20224;-78
2022/11/03 00:11:49;;;;;;;10.33;2.03;;;;;12.10;100909.00;;;;10286555;28;20192;-77
2022/11/03 00:16:52;;;;;;;6.40;1.93;;;;;12.10;100901.00;;;;10347743;28;20196;-78
2022/11/03 00:21:53;;;;;;;8.27;2.07;;;;;12.10;100907.00;;;;10349541;28;20738;-78
2022/11/03 00:26:55;;;;;;;8.57;2.20;;;;;12.10;100905.00;;;;10364088;28;20230;-78
2022/11/03 00:31:57;;;;;;;9.50;1.93;;;;;12.00;100893.00;;;;10324641;28;20219;-78
2022/11/03 00:36:59;;;;;;;7.57;2.43;;;;;12.00;100875.00;;;;10315418;28;20204;-77
2022/11/03 00:42:01;;;;;;;8.93;2.73;;;;;12.00;100878.00;;;;10333977;28;20746;-78
2022/11/03 00:47:03;;;;;;;9.77;2.20;;;;;11.90;100882.00;;;;10323678;28;20196;-78
2022/11/03 00:52:04;;;;;;;10.67;1.90;;;;;11.90;100874.00;;;;10291989;28;20309;-78
2022/11/03 00:57:06;;;;;;;7.07;2.17;;;;;11.90;100856.00;;;;10295128;28;20750;-77
2022/11/03 01:02:08;;;;;;;5.80;1.90;;;;;12.00;100844.00;;;;10306750;28;20212;-78
2022/11/03 01:07:10;;;;;;;5.67;1.90;;;;;12.00;100844.00;;;;10274395;28;20227;-78
2022/11/03 01:12:15;;;;;;;12.83;2.20;;;;;12.00;100831.00;;;;10298186;28;20195;-78
2022/11/03 01:17:20;;;;;;;6.57;1.70;;;;;12.00;100821.00;;;;10347273;28;20191;-78
2022/11/03 01:22:23;;;;;;;6.40;2.10;;;;;12.00;100819.00;;;;10347175;28;20271;-78
2022/11/03 01:27:24;;;;;;;7.87;2.53;;;;;11.90;100808.00;;;;10343218;28;20199;-79
2022/11/03 01:32:27;;;;;;;7.17;2.13;;;;;11.90;100803.00;;;;10334999;28;20643;-78
2022/11/03 01:37:28;;;;;;;5.23;1.73;;;;;11.90;100812.00;;;;10273688;28;20204;-77
2022/11/03 01:42:30;;;;;;;8.37;2.00;;;;;11.80;100795.00;;;;10305293;28;20227;-77
2022/11/03 01:47:34;;;;;;;7.50;2.63;;;;;11.90;100787.00;;;;10321058;28;20236;-77
2022/11/03 01:52:43;;;;;;;11.50;2.40;;;;;11.80;100792.00;;;;10301429;28;20200;-78
2022/11/03 01:57:56;;;;;;;8.50;2.40;;;;;11.80;100791.00;;;;10272940;28;20878;-78
2022/11/03 02:02:59;;;;;;;7.77;2.23;;;;;11.80;100781.00;;;;11195766;23;20230;-77
2022/11/03 02:08:08;;;;;;;12.77;1.83;;;;;11.80;100786.00;;;;10366425;28;20576;-78
2022/11/03 02:13:23;;;;;;;11.70;2.27;;;;;11.80;100770.00;;;;10382491;28;20183;-76
2022/11/03 02:18:30;;;;;;;9.20;2.10;;;;;11.80;100769.00;;;;10381588;28;20195;-76
2022/11/03 02:23:42;;;;;;;8.40;2.13;;;;;11.80;100745.00;;;;10387434;28;20217;-77
2022/11/03 02:28:44;;;;;;;7.17;1.87;;;;;11.80;100749.00;;;;10371783;28;20202;-77
2022/11/03 02:34:15;;;;;;;6.03;2.00;;;;;11.90;100734.00;;;;10399553;28;20191;-76
2022/11/03 02:39:35;;;;;;;6.40;1.97;;;;;11.90;100720.00;;;;10362102;28;20433;-77
2022/11/03 02:44:38;;;;;;;6.33;1.80;;;;;11.90;100708.00;;;;10385902;28;20244;-76
2022/11/03 02:49:49;;;;;;;9.87;2.00;;;;;11.90;100707.00;;;;10369894;28;20195;-77
2022/11/03 02:54:53;;;;;;;9.43;1.93;;;;;11.90;100691.00;;;;10368714;28;20221;-77
2022/11/03 03:00:04;;;;;;;7.50;2.43;;;;;11.90;100696.00;;;;10384571;28;20191;-77
2022/11/03 03:05:09;;;;;;;6.77;1.90;;;;;12.00;100684.00;;;;10343645;28;20227;-77
2022/11/03 03:10:15;;;;;;;7.07;1.97;;;;;12.00;100680.00;;;;10361317;28;20199;-76
2022/11/03 03:15:21;;;;;;;9.17;1.90;;;;;12.00;100673.00;;;;10360715;28;20199;-76
2022/11/03 03:20:45;;;;;;;5.13;1.90;;;;;12.00;100665.00;;;;10365327;28;20301;-76
2022/11/03 03:25:53;;;;;;;8.17;1.93;;;;;12.10;100667.00;;;;10390756;28;20249;-77
2022/11/03 03:30:58;;;;;;;7.07;2.20;;;;;12.10;100655.00;;;;10359279;28;20219;-76
2022/11/03 03:36:02;;;;;;;9.73;2.20;;;;;12.10;100649.00;;;;10360368;28;20192;-77
2022/11/03 03:41:07;;;;;;;6.70;1.70;;;;;12.20;100640.00;;;;10357624;28;20207;-76
2022/11/03 03:46:13;;;;;;;4.97;1.90;;;;;12.20;100633.00;;;;10383532;28;20213;-77
2022/11/03 03:51:18;;;;;;;6.33;1.80;;;;;12.10;100627.00;;;;10367447;28;20269;-77
2022/11/03 03:56:31;;;;;;;9.17;2.07;;;;;12.20;100620.00;;;;10382929;28;20222;-77
2022/11/03 04:01:33;;;;;;;5.37;1.80;;;;;12.20;100610.00;;;;10417002;28;20565;-77
2022/11/03 04:06:35;;;;;;;8.27;2.00;;;;;12.20;100606.00;;;;10366265;28;20215;-77
2022/11/03 04:22:20;;;;;;;7.07;2.10;;;;;12.20;100572.00;;;;10389094;28;20256;-76
2022/11/03 04:27:30;;;;;;;7.47;3.17;;;;;12.20;100568.00;;;;10366147;28;20187;-77
2022/11/03 04:32:33;;;;;;;7.33;2.13;;;;;12.10;100564.00;;;;10357305;28;20658;-77
2022/11/03 04:37:35;;;;;;;8.13;2.13;;;;;12.10;100555.00;;;;10377682;28;20198;-77
2022/11/03 04:42:36;;;;;;;6.60;1.90;;;;;12.10;100557.00;;;;10355895;28;20246;-77
2022/11/03 04:47:38;;;;;;;8.10;2.20;;;;;12.20;100543.00;;;;10346095;28;20206;-77
2022/11/03 04:52:40;;;;;;;9.53;2.13;;;;;12.20;100548.00;;;;10365314;28;20190;-76
2022/11/03 04:57:43;;;;;;;7.50;1.77;;;;;12.30;100542.00;;;;10364298;28;20199;-78
2022/11/03 05:02:47;;;;;;;6.13;2.20;;;;;12.40;100541.00;;;;10379265;28;20215;-76
2022/11/03 05:07:57;;;;;;;8.80;2.40;;;;;12.40;100531.00;;;;10380781;28;20194;-77
2022/11/03 05:13:00;;;;;;;8.10;1.77;;;;;12.50;100513.00;;;;10364183;28;20190;-77
2022/11/03 05:18:30;;;;;;;9.53;2.13;;;;;12.50;100503.00;;;;10330968;28;20195;-76
2022/11/03 05:23:38;;;;;;;6.57;2.00;;;;;12.40;100486.00;;;;10353188;28;20567;-77
2022/11/03 05:28:43;;;;;;;9.23;1.90;;;;;12.40;100476.00;;;;10349727;28;20203;-77
2022/11/03 05:33:46;;;;;;;10.20;2.17;;;;;12.50;100472.00;;;;10371738;28;20193;-77
2022/11/03 05:38:49;;;;;;;6.50;2.13;;;;;12.50;100470.00;;;;10338693;28;20245;-77
2022/11/03 05:44:17;;;;;;;6.50;2.63;;;;;12.50;100457.00;;;;10349236;28;20227;-76
2022/11/03 05:49:20;;;;;;;8.03;2.10;;;;;12.40;100449.00;;;;10394350;28;20206;-77
2022/11/03 05:54:25;;;;;;;10.70;2.77;;;;;12.30;100447.00;;;;10373330;28;20195;-76
2022/11/03 05:59:28;;;;;;;9.33;2.47;;;;;12.30;100434.00;;;;10394487;28;20233;-76
2022/11/03 06:04:36;;;;;;;14.87;2.67;;;;;12.30;100425.00;;;;10366399;28;20238;-76
2022/11/03 06:09:38;;;;;;;11.23;2.57;;;;;12.30;100408.00;;;;10321539;28;20628;-77
2022/11/03 06:14:40;;;;;;;8.93;2.33;;;;;12.30;100401.00;;;;10337793;28;20192;-76
2022/11/03 06:19:46;;;;;;;10.10;2.43;;;;;12.20;100392.00;;;;10337622;28;20238;-77
2022/11/03 06:24:50;;;;;;;10.67;2.10;;;;;12.20;100382.00;;;;10321563;28;20219;-77
2022/11/03 06:29:57;;;;;;;9.90;4.07;;;;;12.30;100372.00;;;;10337546;28;20654;-76
2022/11/03 06:34:59;;;;;;;6.33;2.40;;;;;12.30;100367.00;;;;10337949;28;20232;-76
2022/11/03 06:40:23;;;;;;;10.20;1.80;;;;;12.30;100368.00;;;;10337463;28;20192;-76
2022/11/03 06:45:25;;;;;;;5.33;1.90;;;;;12.30;100375.00;;;;10330309;28;20281;-76
2022/11/03 06:50:30;;;;;;;5.30;1.80;;;;;12.30;100373.00;;;;10360796;28;20187;-76
2022/11/03 06:55:34;;;;;;;9.07;2.20;;;;;12.40;100379.00;;;;10352614;28;20196;-77
2022/11/03 07:00:38;;;;;;;11.33;2.67;;;;;12.40;100394.00;;;;10325445;28;20215;-77
2022/11/03 07:05:46;;;;;;;5.47;2.00;;;;;12.40;100390.00;;;;10386321;28;20226;-76
2022/11/03 07:10:50;;;;;;;7.63;2.07;;;;;12.50;100379.00;;;;10368556;28;20233;-77
2022/11/03 07:15:52;;;;;;;10.03;2.70;;;;;12.60;100382.00;;;;10384593;28;20684;-76
2022/11/03 07:20:56;;;;;;;11.93;2.40;;;;;12.70;100366.00;;;;10384199;28;20207;-77
2022/11/03 07:26:01;;;;;;;11.07;2.67;;;;;12.70;100371.00;;;;10351931;28;20286;-76
2022/11/03 07:31:15;;;;;;;9.07;2.10;;;;;12.70;100350.00;;;;10368051;28;20783;-77
2022/11/03 07:36:21;;;;;;;4.83;2.30;;;;;12.80;100332.00;;;;10384847;28;20191;-78
2022/11/03 07:41:26;;;;;;;4.27;1.80;;;;;12.80;100334.00;;;;10362000;28;20230;-77
2022/11/03 07:46:35;;;;;;;11.47;2.53;;;;;12.90;100331.00;;;;10383806;28;20667;-77
2022/11/03 07:51:39;;;;;;;12.57;2.20;;;;;12.80;100316.00;;;;10367436;28;20687;-76
2022/11/03 07:56:48;;;;;;;6.53;1.70;;;;;12.80;100318.00;;;;10349380;28;20196;-77
2022/11/03 08:01:53;;;;;;;7.63;1.63;;;;;12.90;100295.00;;;;10341530;28;20278;-76
2022/11/03 08:06:55;;;;;;;5.90;2.20;;;;;13.00;100299.00;;;;10332806;28;20227;-77
2022/11/03 08:11:57;;;;;;;7.13;1.93;;;;;13.10;100293.00;;;;10382232;28;20194;-77
2022/11/03 08:16:59;;;;;;;9.27;2.17;;;;;13.20;100271.00;;;;10358124;28;20196;-77
2022/11/03 08:22:01;;;;;;;11.43;2.43;;;;;13.30;100257.00;;;;10341812;28;20605;-77
2022/11/03 08:27:03;;;;;;;5.13;1.80;;;;;13.40;100251.00;;;;10341987;28;20192;-78
2022/11/03 08:32:05;;;;;;;9.33;2.13;;;;;13.40;100244.00;;;;10341298;28;20188;-78
2022/11/03 08:37:07;;;;;;;6.23;2.00;;;;;13.50;100227.00;;;;10373670;28;20195;-77
2022/11/03 08:42:09;;;;;;;5.03;1.80;;;;;13.50;100203.00;;;;10381064;28;20210;-77
2022/11/03 08:47:11;;;;;;;9.63;2.40;;;;;13.50;100192.00;;;;10397337;28;20671;-77
2022/11/03 08:52:13;;;;;;;9.90;2.40;;;;;13.40;100173.00;;;;10381189;28;20237;-77
2022/11/03 08:57:14;;;;;;;6.80;2.00;;;;;13.30;100162.00;;;;10356752;28;20203;-77
2022/11/03 09:02:16;;;;;;;10.30;1.93;;;;;13.20;100152.00;;;;10323720;28;20590;-78
2022/11/03 09:07:19;;;;;;;6.47;2.20;;;;;13.20;100148.00;;;;10330014;28;20254;-77
2022/11/03 09:12:22;;;;;;;8.80;2.13;;;;;13.20;100135.00;;;;10358554;28;20217;-77
2022/11/03 09:17:23;;;;;;;6.27;1.97;;;;;13.20;100129.00;;;;10358827;28;20194;-77
2022/11/03 09:22:25;;;;;;;5.87;2.00;;;;;13.30;100120.00;;;;10363444;28;20284;-77
2022/11/03 09:27:27;;;;;;;13.03;2.10;;;;;13.60;100108.00;;;;10380178;28;20716;-77
2022/11/03 09:32:30;;;;;;;11.40;2.07;;;;;14.00;100085.00;;;;10363187;28;20203;-77
2022/11/03 09:37:32;;;;;;;7.03;1.83;;;;;14.60;100074.00;;;;10389550;28;20837;-77
2022/11/03 09:42:35;;;;;;;6.70;2.60;;;;;15.10;100064.00;;;;10380187;28;20247;-77
2022/11/03 09:47:40;;;;;;;6.60;2.20;;;;;15.60;100053.00;;;;10379379;28;20545;-77
2022/11/03 09:52:42;;;;;;;5.43;2.20;;;;;15.80;100052.00;;;;10379008;28;20649;-77
2022/11/03 09:57:54;;;;;;;6.67;1.90;;;;;16.00;100036.00;;;;10363712;28;20190;-77
2022/11/03 10:02:56;;;;;;;5.27;1.90;;;;;16.10;100037.00;;;;10394800;28;20692;-78
2022/11/03 10:08:01;;;;;;;5.88;1.90;;;;;16.20;100049.00;;;;10321557;28;20211;-77
2022/11/03 10:13:07;;;;;;;5.90;2.10;;;;;16.30;100035.00;;;;10366570;28;20195;-78
2022/11/03 10:18:10;;;;;;;6.77;1.93;;;;;16.10;100029.00;;;;10345762;28;20245;-78
2022/11/03 10:23:12;;;;;;;3.10;1.52;;;;;15.80;100009.00;;;;10353749;28;20218;-77
2022/11/03 10:28:14;;;;;;;4.75;1.55;;;;;15.80;100007.00;;;;10337348;28;20202;-77
2022/11/03 10:33:46;;;;;;;5.00;1.88;;;;;15.60;100005.00;;;;10355322;28;20184;-77
2022/11/03 10:38:48;;;;;;;5.35;1.90;;;;;15.80;99992.00;;;;10368259;28;20199;-77
2022/11/03 10:44:01;;;;;;;3.50;1.30;;;;;16.10;99981.00;;;;10376307;28;20215;-77
2022/11/03 10:49:18;;;;;;;3.28;1.30;;;;;16.20;99981.00;;;;10346672;28;20199;-78
2022/11/03 10:54:22;;;;;;;4.05;1.50;;;;;16.30;99962.00;;;;10360722;28;20191;-77
2022/11/03 10:59:31;;;;;;;5.07;2.00;;;;;16.40;99930.00;;;;10388249;28;20278;-78
2022/11/03 11:04:33;;;;;;;3.85;1.55;;;;;16.60;99913.00;;;;10383032;28;20223;-77
2022/11/03 11:09:35;;;;;;;6.53;1.75;;;;;16.40;99903.00;;;;10402406;28;20183;-77
2022/11/03 11:14:50;;;;;;;4.30;1.77;;;;;16.40;99898.00;;;;10385233;28;20245;-78
2022/11/03 11:20:27;;;;;;;4.65;1.52;;;;;16.80;99897.00;;;;10418828;28;20186;-77
2022/11/03 11:26:07;;;;;;;5.73;1.63;;;;;16.90;99874.00;;;;10385245;28;20301;-77
2022/11/03 11:31:21;;;;;;;1.95;1.10;;;;;17.20;99872.00;;;;10418521;28;20187;-77
2022/11/03 11:36:24;;;;;;;5.88;1.83;;;;;17.30;99855.00;;;;10367189;28;20234;-77
2022/11/03 11:42:03;;;;;;;4.90;1.77;;;;;17.60;99852.00;;;;10367602;28;20215;-77
2022/11/03 11:47:27;;;;;;;4.78;1.90;;;;;17.90;99829.00;;;;10399814;28;20198;-77
2022/11/03 11:52:29;;;;;;;6.68;1.63;;;;;18.90;99832.00;;;;10383602;28;20721;-77
2022/11/03 11:57:34;;;;;;;7.82;2.17;;;;;18.60;99817.00;;;;10417344;28;20841;-78
2022/11/03 12:02:35;;;;;;;10.68;2.10;;;;;18.00;99797.00;;;;10382740;28;20211;-77
2022/11/03 12:07:37;;;;;;;25.02;3.33;;;;;17.70;99789.00;;;;10383043;28;20680;-77
2022/11/03 12:12:39;;;;;;;15.20;1.80;;;;;17.20;99783.00;;;;10384705;28;20657;-77
2022/11/03 12:17:41;;;;;;;5.32;1.95;;;;;17.00;99771.00;;;;10365670;28;20239;-77
2022/11/03 12:22:43;;;;;;;16.15;2.40;;;;;17.10;99749.00;;;;10382047;28;20210;-78
2022/11/03 12:27:45;;;;;;;2.38;1.27;;;;;16.40;99740.00;;;;10399309;28;20191;-77
2022/11/03 12:32:47;;;;;;;5.28;1.60;;;;;15.90;99736.00;;;;10366324;28;20187;-77
2022/11/03 12:37:49;;;;;;;6.80;2.50;;;;;15.50;99744.00;;;;10364792;28;20206;-78
2022/11/03 12:42:51;;;;;;;4.97;1.48;;;;;14.80;99731.00;;;;10396254;28;20203;-77
2022/11/03 12:47:53;;;;;;;8.40;1.83;;;;;14.30;99746.00;;;;10378757;28;20561;-77
2022/11/03 12:52:55;;;;;;;6.10;1.50;;;;;14.00;99749.00;;;;10388277;28;20202;-77
2022/11/03 12:57:57;;;;;;;5.03;1.20;;;;;13.50;99722.00;;;;10363038;28;20811;-77
2022/11/03 13:02:58;;;;;;;4.83;1.50;;;;;13.30;99725.00;;;;10375575;28;20237;-77
2022/11/03 13:08:00;;;;;;;3.50;1.77;;;;;13.40;99704.00;;;;10341104;28;20281;-77
2022/11/03 13:13:02;;;;;;;3.60;1.43;;;;;13.70;99687.00;;;;10362799;28;20187;-77
2022/11/03 13:18:04;;;;;;;6.50;2.23;;;;;13.40;99684.00;;;;10348676;28;20199;-77
2022/11/03 13:23:14;;;;;;;1.77;1.33;;;;;13.20;99655.00;;;;10378805;28;20214;-76
2022/11/03 13:28:21;;;;;;;2.07;1.40;;;;;13.20;99656.00;;;;10362615;28;20197;-77
2022/11/03 13:33:22;;;;;;;1.80;1.27;;;;;13.40;99662.00;;;;10375254;28;20218;-77
2022/11/03 13:38:24;;;;;;;3.50;1.40;;;;;13.30;99657.00;;;;10376938;28;20199;-77
2022/11/03 13:43:27;;;;;;;3.57;1.50;;;;;13.40;99641.00;;;;10361976;28;20215;-77
2022/11/03 13:48:29;;;;;;;3.17;1.17;;;;;13.70;99629.00;;;;10346023;28;20546;-77
2022/11/03 13:53:52;;;;;;;6.53;1.77;;;;;13.90;99625.00;;;;10378758;28;20218;-77
2022/11/03 13:59:14;;;;;;;4.20;1.53;;;;;13.80;99628.00;;;;10357020;28;20196;-77
2022/11/03 14:04:31;;;;;;;3.00;1.30;;;;;13.70;99601.00;;;;10382099;28;20252;-78
2022/11/03 14:09:40;;;;;;;3.47;1.30;;;;;13.60;99602.00;;;;10394680;28;20187;-78
2022/11/03 14:14:42;;;;;;;4.73;1.70;;;;;13.50;99590.00;;;;10325538;28;20372;-78
2022/11/03 14:19:44;;;;;;;3.73;1.70;;;;;13.40;99578.00;;;;10338017;28;20195;-78
2022/11/03 14:24:52;;;;;;;4.17;1.77;;;;;13.40;99599.00;;;;10322440;28;20234;-78
2022/11/03 14:29:55;;;;;;;4.93;2.03;;;;;13.30;99584.00;;;;10338109;28;20184;-78
2022/11/03 14:34:57;;;;;;;7.33;1.90;;;;;13.30;99566.00;;;;10361136;28;20241;-78
2022/11/03 14:39:59;;;;;;;3.60;1.90;;;;;13.30;99538.00;;;;10344215;28;20195;-78
2022/11/03 14:45:00;;;;;;;3.03;2.10;;;;;13.30;99531.00;;;;10379068;28;20222;-77
2022/11/03 14:50:02;;;;;;;5.60;2.00;;;;;13.10;99537.00;;;;10378885;28;20198;-78
2022/11/03 14:55:05;;;;;;;4.30;1.83;;;;;13.00;99516.00;;;;10379703;28;20175;-78
2022/11/03 15:00:10;;;;;;;6.37;2.10;;;;;12.90;99511.00;;;;10361711;28;20522;-77
2022/11/03 15:05:42;;;;;;;2.73;2.40;;;;;12.90;99506.00;;;;10394290;28;20866;-77
2022/11/03 15:10:33;;;;;;;3.50;2.00;;;;;12.80;99488.00;;;;10370275;28;20206;-78
2022/11/03 15:15:35;;;;;;;8.23;2.90;;;;;12.70;99487.00;;;;10337943;28;20184;-77
2022/11/03 15:20:37;;;;;;;4.87;2.47;;;;;12.60;99481.00;;;;10337362;28;20262;-77
2022/11/03 15:25:39;;;;;;;7.70;2.10;;;;;12.60;99472.00;;;;10354379;28;20222;-78
2022/11/03 15:30:41;;;;;;;9.00;2.67;;;;;12.40;99473.00;;;;10360149;28;20234;-78
2022/11/03 15:35:43;;;;;;;4.17;2.40;;;;;12.30;99469.00;;;;10343953;28;20229;-78
2022/11/03 15:40:45;;;;;;;6.47;2.40;;;;;12.10;99461.00;;;;10344881;28;20202;-77
2022/11/03 15:45:47;;;;;;;6.40;2.43;;;;;12.00;99441.00;;;;10380686;28;20554;-77
2022/11/03 15:50:49;;;;;;;4.37;3.13;;;;;11.90;99434.00;;;;10380473;28;20179;-77
2022/11/03 15:55:51;;;;;;;3.67;2.43;;;;;11.80;99442.00;;;;10340166;28;20198;-77
2022/11/03 16:00:52;;;;;;;5.87;2.63;;;;;11.80;99438.00;;;;10398661;28;20629;-77
2022/11/03 16:05:54;;;;;;;7.07;2.80;;;;;11.70;99444.00;;;;10358907;28;20220;-77
2022/11/03 16:10:56;;;;;;;5.70;2.93;;;;;11.70;99438.00;;;;10341197;28;20192;-77
2022/11/03 16:15:59;;;;;;;4.63;3.33;;;;;11.60;99430.00;;;;10324739;28;20193;-77
2022/11/03 16:21:01;;;;;;;3.30;2.53;;;;;11.60;99416.00;;;;10413279;28;20198;-77
2022/11/03 16:26:04;;;;;;;5.00;2.50;;;;;11.50;99421.00;;;;10380714;28;20223;-77
2022/11/03 16:31:06;;;;;;;4.53;2.73;;;;;11.50;99401.00;;;;10397479;28;20206;-77
2022/11/03 16:36:08;;;;;;;4.57;2.53;;;;;11.50;99389.00;;;;10354577;28;20230;-77
2022/11/03 16:41:10;;;;;;;5.83;2.80;;;;;11.50;99394.00;;;;10346195;28;20199;-77
2022/11/03 16:46:12;;;;;;;4.60;3.07;;;;;11.50;99385.00;;;;10346101;28;20223;-77
2022/11/03 16:51:14;;;;;;;4.83;2.87;;;;;11.40;99369.00;;;;10394703;28;20195;-77
2022/11/03 16:56:16;;;;;;;8.77;3.27;;;;;11.40;99400.00;;;;10332244;28;20192;-77
2022/11/03 17:01:18;;;;;;;6.27;3.77;;;;;11.40;99395.00;;;;10338555;28;20605;-77
2022/11/03 17:06:20;;;;;;;4.97;3.10;;;;;11.40;99395.00;;;;10353842;28;20227;-77
2022/11/03 17:11:37;;;;;;;4.13;3.00;;;;;11.50;99391.00;;;;10354051;28;20187;-77
2022/11/03 17:16:45;;;;;;;6.67;3.07;;;;;11.50;99374.00;;;;10338510;28;20171;-77
2022/11/03 17:21:48;;;;;;;6.90;3.50;;;;;11.50;99376.00;;;;10337770;28;20184;-77
2022/11/03 17:27:10;;;;;;;4.67;2.63;;;;;11.50;99386.00;;;;10337714;28;20215;-77
2022/11/03 17:32:19;;;;;;;4.67;3.17;;;;;11.50;99389.00;;;;10322937;28;20440;-78
2022/11/03 17:37:23;;;;;;;4.93;3.07;;;;;11.50;99394.00;;;;10389405;28;20669;-78
2022/11/03 17:42:25;;;;;;;8.57;2.87;;;;;11.50;99383.00;;;;10379226;28;20209;-78
2022/11/03 17:47:30;;;;;;;5.30;2.87;;;;;11.60;99399.00;;;;10380622;28;20278;-78
2022/11/03 17:52:32;;;;;;;5.00;2.87;;;;;11.60;99414.00;;;;10397208;28;20183;-78
2022/11/03 17:57:35;;;;;;;5.57;3.17;;;;;11.60;99427.00;;;;10340651;28;20191;-78
2022/11/03 18:02:39;;;;;;;5.70;4.17;;;;;11.70;99417.00;;;;10340668;28;20774;-78
2022/11/03 18:07:41;;;;;;;6.10;2.93;;;;;11.70;99426.00;;;;10395097;28;20207;-78
2022/11/03 18:18:14;;;;;;;8.50;3.80;;;;;11.70;99401.00;;;;10395010;28;20194;-77
2022/11/03 18:23:22;;;;;;;8.87;4.57;;;;;11.70;99390.00;;;;10395990;28;20245;-77
2022/11/03 18:28:24;;;;;;;5.23;3.50;;;;;11.70;99395.00;;;;10362312;28;20202;-78
2022/11/03 18:33:34;;;;;;;3.53;2.27;;;;;11.80;99390.00;;;;10409575;28;20649;-77
2022/11/03 18:38:40;;;;;;;5.97;3.23;;;;;11.80;99397.00;;;;10338718;28;20238;-77
2022/11/03 18:43:42;;;;;;;5.53;3.70;;;;;11.80;99388.00;;;;10321780;28;20227;-77
2022/11/03 18:48:43;;;;;;;3.67;2.93;;;;;11.80;99406.00;;;;10367436;28;20681;-78
2022/11/03 18:53:45;;;;;;;10.27;4.77;;;;;11.80;99405.00;;;;10358681;28;20183;-77
2022/11/03 18:58:50;;;;;;;7.50;3.40;;;;;11.80;99385.00;;;;10379111;28;20198;-78
2022/11/03 19:03:53;;;;;;;5.50;3.67;;;;;11.80;99401.00;;;;10373094;28;20228;-78
2022/11/03 19:08:58;;;;;;;7.63;3.90;;;;;11.80;99387.00;;;;10403437;28;20223;-77
2022/11/03 19:14:00;;;;;;;5.73;3.23;;;;;11.80;99397.00;;;;10370179;28;20213;-78
2022/11/03 19:19:02;;;;;;;3.57;2.90;;;;;11.80;99385.00;;;;10369979;28;20194;-77
2022/11/03 19:24:04;;;;;;;6.57;3.33;;;;;11.80;99387.00;;;;10387721;28;20226;-78
2022/11/03 19:29:11;;;;;;;3.43;2.90;;;;;11.60;99409.00;;;;10387779;28;20187;-77
2022/11/03 19:34:20;;;;;;;3.90;3.00;;;;;11.50;99410.00;;;;10374484;28;20195;-77
2022/11/03 19:39:25;;;;;;;3.80;3.13;;;;;11.30;99429.00;;;;10342953;28;20249;-77
2022/11/03 19:44:27;;;;;;;3.00;2.70;;;;;11.20;99411.00;;;;10309848;28;20219;-77
2022/11/03 19:49:29;;;;;;;2.77;2.50;;;;;11.10;99411.00;;;;10331392;28;20206;-77
2022/11/03 19:54:31;;;;;;;4.10;2.97;;;;;11.00;99438.00;;;;10365178;28;20187;-77
2022/11/03 19:59:33;;;;;;;2.47;2.27;;;;;10.90;99447.00;;;;10348947;28;20611;-77
2022/11/03 20:04:35;;;;;;;3.00;2.73;;;;;10.90;99461.00;;;;10352784;28;20222;-77
2022/11/03 20:09:37;;;;;;;3.73;2.57;;;;;10.80;99447.00;;;;10365874;28;20225;-76
2022/11/03 20:14:39;;;;;;;1.50;1.40;;;;;10.70;99465.00;;;;10381239;28;20628;-77
2022/11/03 20:19:41;;;;;;;1.97;1.43;;;;;10.50;99495.00;;;;10372815;28;20203;-77
2022/11/03 20:24:45;;;;;;;1.40;1.30;;;;;10.40;99500.00;;;;10324755;28;20229;-77
2022/11/03 20:29:47;;;;;;;1.00;0.97;;;;;10.30;99498.00;;;;10340484;28;20191;-77
2022/11/03 20:34:49;;;;;;;2.10;1.00;;;;;10.30;99505.00;;;;10349743;28;20184;-77
2022/11/03 20:39:51;;;;;;;1.20;1.10;;;;;10.20;99515.00;;;;10323179;28;20180;-77
2022/11/03 20:44:53;;;;;;;1.23;1.10;;;;;10.10;99545.00;;;;10364774;28;20233;-77
2022/11/03 20:49:55;;;;;;;2.43;1.50;;;;;10.00;99571.00;;;;10339940;28;20208;-77
2022/11/03 20:54:57;;;;;;;4.10;1.47;;;;;10.00;99569.00;;;;10375231;28;20175;-77
2022/11/03 20:59:59;;;;;;;2.07;1.20;;;;;10.00;99572.00;;;;10363835;28;20646;-77
2022/11/03 21:05:01;;;;;;;1.80;1.40;;;;;10.00;99557.00;;;;10361324;28;20223;-78
2022/11/03 21:10:03;;;;;;;2.87;1.10;;;;;10.00;99566.00;;;;10354093;28;20250;-78
2022/11/03 21:20:33;;;;;;;2.70;1.27;;;;;10.10;99575.00;;;;10378715;28;20302;-77
2022/11/03 21:25:35;;;;;;;3.67;2.63;;;;;10.20;99589.00;;;;10378108;28;20199;-77
2022/11/03 21:30:37;;;;;;;3.30;2.40;;;;;10.10;99603.00;;;;10378785;28;20195;-77
2022/11/03 21:35:43;;;;;;;4.10;2.57;;;;;10.10;99605.00;;;;10362853;28;20594;-77
2022/11/03 21:40:50;;;;;;;5.03;3.17;;;;;10.10;99612.00;;;;10362754;28;20189;-77
2022/11/03 21:46:08;;;;;;;4.93;3.00;;;;;10.10;99612.00;;;;10378589;28;20218;-78
2022/11/03 21:51:09;;;;;;;3.97;3.00;;;;;10.10;99609.00;;;;10361034;28;20221;-77
2022/11/03 21:56:12;;;;;;;6.63;3.93;;;;;10.20;99615.00;;;;10387752;28;20183;-77
2022/11/03 22:01:16;;;;;;;4.27;3.83;;;;;10.20;99624.00;;;;10377741;28;20203;-77
2022/11/03 22:06:18;;;;;;;5.00;3.87;;;;;10.30;99618.00;;;;10345814;28;20771;-78
2022/11/03 22:11:20;;;;;;;5.87;4.27;;;;;10.20;99620.00;;;;10361544;28;20199;-78
2022/11/03 22:16:35;;;;;;;5.43;3.43;;;;;10.10;99626.00;;;;10361108;28;20301;-78
2022/11/03 22:26:59;;;;;;;4.47;3.23;;;;;9.80;99654.00;;;;10377877;28;20219;-78
2022/11/03 22:32:01;;;;;;;4.07;3.00;;;;;9.70;99675.00;;;;10362195;28;20253;-78
2022/11/03 22:37:02;;;;;;;7.10;3.47;;;;;9.70;99696.00;;;;10354407;28;20203;-78
2022/11/03 22:47:25;;;;;;;4.00;3.50;;;;;9.70;99686.00;;;;10402132;28;20223;-78
2022/11/03 22:52:27;;;;;;;4.27;2.73;;;;;9.60;99687.00;;;;10370323;28;20562;-78
2022/11/03 22:57:29;;;;;;;6.67;2.47;;;;;9.60;99680.00;;;;10420041;28;20243;-78
2022/11/03 23:02:31;;;;;;;2.53;2.27;;;;;9.50;99686.00;;;;10402806;28;20195;-78
2022/11/03 23:07:34;;;;;;;4.50;2.27;;;;;9.50;99674.00;;;;10332686;28;20221;-78
2022/11/03 23:12:42;;;;;;;3.37;1.80;;;;;9.40;99660.00;;;;10359570;28;20195;-78
2022/11/03 23:24:58;;;;;;;9.27;2.30;;;;;9.20;99680.00;;;;10365566;28;20226;-78
2022/11/03 23:28:33;;;;;;;4.57;2.30;;;;;9.10;99685.00;;;;10384630;28;20230;-78
2022/11/03 23:33:35;;;;;;;3.30;2.30;;;;;9.10;99690.00;;;;10379942;28;20773;-78
2022/11/03 23:38:38;;;;;;;6.23;2.33;;;;;9.10;99695.00;;;;10326866;28;20214;-78
2022/11/03 23:43:41;;;;;;;5.07;2.00;;;;;9.00;99695.00;;;;10346087;28;20211;-78
2022/11/03 23:48:46;;;;;;;4.20;1.60;;;;;9.10;99689.00;;;;10383849;28;20221;-78
2022/11/03 23:53:48;;;;;;;2.10;1.40;;;;;9.10;99695.00;;;;10346215;28;20244;-77
2022/11/03 23:58:51;;;;;;;4.47;1.50;;;;;9.00;99711.00;;;;10384308;28;20205;-77
